createdAt,value
2022-12-28T00:01:40.231Z,-1.19
2022-12-28T00:04:09.902Z,-1.15
2022-12-28T00:06:39.360Z,-1.19
2022-12-28T00:09:12.692Z,-1.26
2022-12-28T00:11:42.140Z,-1.17
2022-12-28T00:14:11.302Z,-1.13
2022-12-28T00:16:41.994Z,-1.12
2022-12-28T00:19:19.233Z,-1.12
2022-12-28T00:22:00.998Z,-1.16
2022-12-28T00:24:37.242Z,-1.16
2022-12-28T00:27:06.488Z,-1.09
2022-12-28T00:29:35.594Z,-1.09
2022-12-28T00:32:04.947Z,-1.14
2022-12-28T00:34:34.081Z,-1.15
2022-12-28T00:37:10.213Z,-1.10
2022-12-28T00:39:42.985Z,-1.08
2022-12-28T00:42:15.768Z,-1.06
2022-12-28T00:44:45.200Z,-1.08
2022-12-28T00:47:14.278Z,-1.07
2022-12-28T00:49:49.407Z,-1.06
2022-12-28T00:55:04.749Z,-1.11
2022-12-28T00:57:37.023Z,-1.09
2022-12-28T01:00:18.005Z,-1.14
2022-12-28T01:02:47.392Z,-1.10
2022-12-28T01:05:17.090Z,-1.12
2022-12-28T01:07:46.447Z,-1.06
2022-12-28T01:10:18.159Z,-1.03
2022-12-28T01:12:52.522Z,-1.04
2022-12-28T01:15:22.852Z,-1.04
2022-12-28T01:17:52.192Z,-1.09
2022-12-28T01:20:21.647Z,-1.01
2022-12-28T01:22:51.022Z,-1.01
2022-12-28T01:25:22.109Z,-1.06
2022-12-28T01:30:35.277Z,-1.03
2022-12-28T01:33:08.428Z,-0.98
2022-12-28T01:35:47.718Z,-0.99
2022-12-28T01:38:16.906Z,-1.00
2022-12-28T01:40:47.962Z,-1.06
2022-12-28T01:43:29.691Z,-0.99
2022-12-28T01:45:58.991Z,-0.98
2022-12-28T01:48:28.765Z,-1.11
2022-12-28T01:50:58.923Z,-0.98
2022-12-28T01:53:29.010Z,-0.98
2022-12-28T01:56:06.810Z,-0.98
2022-12-28T01:58:37.291Z,-0.96
2022-12-28T02:01:07.299Z,-0.96
2022-12-28T02:03:37.210Z,-1.10
2022-12-28T02:06:14.298Z,-0.98
2022-12-28T02:09:02.401Z,-1.00
2022-12-28T02:11:34.773Z,-1.00
2022-12-28T02:14:04.757Z,-1.00
2022-12-28T02:16:33.883Z,-1.01
2022-12-28T02:19:03.821Z,-1.00
2022-12-28T02:21:45.728Z,-1.02
2022-12-28T02:24:37.789Z,-1.03
2022-12-28T02:27:15.939Z,-1.07
2022-12-28T02:30:08.294Z,-1.08
2022-12-28T02:32:49.175Z,-1.10
2022-12-28T02:35:26.479Z,-1.14
2022-12-28T02:38:02.164Z,-1.16
2022-12-28T02:40:41.480Z,-1.32
2022-12-28T02:43:10.872Z,-1.15
2022-12-28T02:45:57.030Z,-1.27
2022-12-28T02:48:39.497Z,-1.14
2022-12-28T02:51:31.680Z,-1.13
2022-12-28T02:54:40.769Z,-1.12
2022-12-28T02:57:20.846Z,-1.21
2022-12-28T03:00:04.057Z,-1.15
2022-12-28T03:02:58.099Z,-1.13
2022-12-28T03:05:48.768Z,-1.10
2022-12-28T03:11:10.162Z,-1.11
2022-12-28T03:13:50.013Z,-1.06
2022-12-28T03:16:27.636Z,-1.02
2022-12-28T03:19:17.099Z,-0.99
2022-12-28T03:22:01.271Z,-1.00
2022-12-28T03:27:38.504Z,-0.99
2022-12-28T03:30:30.077Z,-0.98
2022-12-28T03:33:01.461Z,-0.97
2022-12-28T03:35:44.001Z,-0.96
2022-12-28T03:38:26.797Z,-1.13
2022-12-28T03:41:03.395Z,-1.00
2022-12-28T03:43:41.939Z,-0.99
2022-12-28T03:46:29.799Z,-1.10
2022-12-28T03:49:01.357Z,-0.98
2022-12-28T03:51:38.966Z,-1.13
2022-12-28T03:54:16.774Z,-1.08
2022-12-28T03:56:54.608Z,-1.07
2022-12-28T03:59:29.300Z,-1.11
2022-12-28T04:01:59.764Z,-1.21
2022-12-28T04:04:36.005Z,-1.12
2022-12-28T04:07:07.355Z,-1.12
2022-12-28T04:09:36.719Z,-1.11
2022-12-28T04:12:06.635Z,-1.17
2022-12-28T04:15:01.177Z,-2.69
2022-12-28T04:17:32.663Z,-1.11
2022-12-28T04:20:02.019Z,-1.15
2022-12-28T04:22:34.549Z,-1.20
2022-12-28T04:25:05.666Z,-1.36
2022-12-28T04:27:36.874Z,-1.20
2022-12-28T04:30:19.026Z,-1.16
2022-12-28T04:32:48.521Z,-1.16
2022-12-28T04:35:17.731Z,-1.17
2022-12-28T04:37:58.792Z,-1.15
2022-12-28T04:40:28.021Z,-1.21
2022-12-28T04:42:57.170Z,-1.18
2022-12-28T04:45:26.366Z,-1.19
2022-12-28T04:47:58.555Z,-1.17
2022-12-28T04:53:12.786Z,-1.17
2022-12-28T04:55:42.065Z,-1.23
2022-12-28T04:58:11.162Z,-1.18
2022-12-28T05:00:45.625Z,-1.24
2022-12-28T05:03:19.744Z,-1.20
2022-12-28T05:05:48.946Z,-1.38
2022-12-28T05:08:20.028Z,-1.26
2022-12-28T05:10:56.100Z,-1.24
2022-12-28T05:13:25.638Z,-1.21
2022-12-28T05:15:55.268Z,-1.17
2022-12-28T05:18:24.723Z,-1.19
2022-12-28T05:21:00.998Z,-1.14
2022-12-28T05:23:39.324Z,-1.19
2022-12-28T05:26:10.502Z,-1.13
2022-12-28T05:28:40.063Z,-1.12
2022-12-28T05:31:12.551Z,-1.10
2022-12-28T05:33:42.297Z,-1.10
2022-12-28T05:36:18.998Z,-1.09
2022-12-28T05:38:50.554Z,-1.09
2022-12-28T05:41:26.749Z,-1.10
2022-12-28T05:43:56.551Z,-1.17
2022-12-28T05:46:28.049Z,-1.18
2022-12-28T05:51:41.620Z,-1.39
2022-12-28T05:54:12.677Z,-1.23
2022-12-28T05:56:49.846Z,-1.23
2022-12-28T05:59:19.185Z,-1.43
2022-12-28T06:01:48.680Z,-1.23
2022-12-28T06:04:20.205Z,-1.20
2022-12-28T06:07:00.442Z,-1.21
2022-12-28T06:09:32.866Z,-1.19
2022-12-28T06:12:04.330Z,-1.19
2022-12-28T06:14:34.264Z,-1.27
2022-12-28T06:17:03.530Z,-1.14
2022-12-28T06:19:32.789Z,-1.14
2022-12-28T06:22:02.225Z,-1.20
2022-12-28T06:24:33.391Z,-1.22
2022-12-28T06:27:02.526Z,-1.24
2022-12-28T06:29:31.774Z,-1.08
2022-12-28T06:32:01.317Z,-1.27
2022-12-28T06:34:30.546Z,-1.11
2022-12-28T06:37:00.109Z,-1.10
2022-12-28T06:39:29.725Z,-1.10
2022-12-28T06:42:01.170Z,-1.09
2022-12-28T06:44:30.749Z,-1.07
2022-12-28T06:47:00.027Z,-1.02
2022-12-28T06:49:29.786Z,-1.20
2022-12-28T06:51:58.809Z,-0.97
2022-12-28T06:54:28.100Z,-0.92
2022-12-28T06:56:57.325Z,-0.90
2022-12-28T06:59:28.507Z,-0.89
2022-12-28T07:01:57.910Z,-0.89
2022-12-28T07:04:27.134Z,-0.95
2022-12-28T07:06:56.138Z,-1.00
2022-12-28T07:09:25.313Z,-1.00
2022-12-28T07:11:59.979Z,-0.99
2022-12-28T07:14:31.890Z,-1.06
2022-12-28T07:17:01.483Z,-1.71
2022-12-28T07:19:30.959Z,-1.56
2022-12-28T07:22:05.739Z,-1.15
2022-12-28T07:24:34.995Z,-1.17
2022-12-28T07:27:04.164Z,-1.13
2022-12-28T07:29:35.382Z,-1.06
2022-12-28T07:32:16.171Z,-0.99
2022-12-28T07:34:46.019Z,-1.05
2022-12-28T07:37:15.179Z,-0.96
2022-12-28T07:39:44.516Z,-0.92
2022-12-28T07:42:13.743Z,-0.86
2022-12-28T07:44:49.947Z,-0.91
2022-12-28T07:47:19.576Z,-0.80
2022-12-28T07:49:48.684Z,-0.88
2022-12-28T07:52:17.842Z,-0.74
2022-12-28T07:54:46.970Z,-0.81
2022-12-28T07:57:16.260Z,-0.77
2022-12-28T07:59:47.369Z,-1.00
2022-12-28T08:02:21.711Z,-0.96
2022-12-28T08:04:52.349Z,-0.78
2022-12-28T08:07:21.797Z,-0.78
2022-12-28T08:09:50.988Z,-0.98
2022-12-28T08:12:20.872Z,-0.75
2022-12-28T08:14:52.040Z,-0.78
2022-12-28T08:17:21.487Z,-0.91
2022-12-28T08:19:51.507Z,-0.98
2022-12-28T08:22:20.888Z,-1.08
2022-12-28T08:24:50.063Z,-1.05
2022-12-28T08:27:19.408Z,-1.12
2022-12-28T08:29:48.681Z,-1.18
2022-12-28T08:32:19.863Z,-1.28
2022-12-28T08:34:49.222Z,-1.41
2022-12-28T08:37:20.166Z,-1.34
2022-12-28T08:39:49.453Z,-1.33
2022-12-28T08:42:23.533Z,-1.31
2022-12-28T08:44:52.773Z,-1.30
2022-12-28T08:47:24.254Z,-1.34
2022-12-28T08:49:53.453Z,-1.32
2022-12-28T08:52:24.336Z,-1.28
2022-12-28T08:54:58.504Z,-1.33
2022-12-28T08:57:29.566Z,-1.29
2022-12-28T09:00:03.808Z,-1.35
2022-12-28T09:02:35.685Z,-1.25
2022-12-28T09:05:05.224Z,-1.23
2022-12-28T09:07:34.439Z,-1.42
2022-12-28T09:10:03.521Z,-1.34
2022-12-28T09:12:37.781Z,-1.32
2022-12-28T09:15:08.478Z,-1.28
2022-12-28T09:17:39.658Z,-1.25
2022-12-28T09:20:09.946Z,-1.22
2022-12-28T09:22:39.033Z,-1.23
2022-12-28T09:25:09.358Z,-1.31
2022-12-28T09:27:38.648Z,-1.33
2022-12-28T09:30:09.576Z,-1.36
2022-12-28T09:32:40.701Z,-1.33
2022-12-28T09:35:10.189Z,-1.38
2022-12-28T09:37:39.263Z,-1.26
2022-12-28T09:40:11.029Z,-1.22
2022-12-28T09:42:44.243Z,-1.14
2022-12-28T09:45:15.015Z,-1.03
2022-12-28T09:47:51.386Z,-0.97
2022-12-28T09:50:30.529Z,-0.86
2022-12-28T09:53:28.994Z,-0.93
2022-12-28T09:58:49.207Z,-0.70
2022-12-28T10:01:20.326Z,-0.65
2022-12-28T10:03:51.699Z,-0.64
2022-12-28T10:06:26.164Z,-0.60
2022-12-28T10:08:58.075Z,-0.62
2022-12-28T10:11:37.662Z,-0.61
2022-12-28T10:14:20.019Z,-0.63
2022-12-28T10:16:55.462Z,-0.67
2022-12-28T10:19:28.898Z,-0.68
2022-12-28T10:22:07.913Z,-0.68
2022-12-28T10:24:37.863Z,-0.89
2022-12-28T10:27:14.781Z,-0.63
2022-12-28T10:29:45.658Z,-0.60
2022-12-28T10:35:01.948Z,-0.54
2022-12-28T10:37:36.809Z,-0.55
2022-12-28T10:40:27.246Z,-0.52
2022-12-28T10:42:58.690Z,-0.60
2022-12-28T10:45:38.383Z,-0.81
2022-12-28T10:48:16.774Z,-0.49
2022-12-28T10:50:53.728Z,-0.57
2022-12-28T10:53:28.100Z,-0.58
2022-12-28T10:56:09.730Z,-0.59
2022-12-28T10:58:39.083Z,-0.55
2022-12-28T11:01:18.670Z,-0.55
2022-12-28T11:04:01.483Z,-0.55
2022-12-28T11:06:34.387Z,-0.54
2022-12-28T11:09:23.403Z,-0.62
2022-12-28T11:11:54.598Z,-0.54
2022-12-28T11:14:35.382Z,-0.59
2022-12-28T11:17:18.156Z,-0.69
2022-12-28T11:19:48.545Z,-0.91
2022-12-28T11:22:24.237Z,-0.63
2022-12-28T11:24:53.762Z,-0.66
2022-12-28T11:27:25.269Z,-0.74
2022-12-28T11:29:56.239Z,-0.77
2022-12-28T11:32:38.477Z,-0.82
2022-12-28T11:35:14.172Z,-0.85
2022-12-28T11:37:53.551Z,-0.71
2022-12-28T11:40:59.014Z,-0.76
2022-12-28T11:43:55.171Z,-0.75
2022-12-28T11:46:41.873Z,-0.78
2022-12-28T11:49:33.023Z,-0.80
2022-12-28T11:52:47.725Z,-0.81
2022-12-28T11:55:46.500Z,-0.91
2022-12-28T11:58:50.326Z,-0.88
2022-12-28T12:01:44.389Z,-0.88
2022-12-28T12:04:42.574Z,-1.00
2022-12-28T12:07:24.699Z,-0.91
2022-12-28T12:10:35.634Z,-1.10
2022-12-28T12:13:40.442Z,-1.06
2022-12-28T12:16:22.099Z,-0.92
2022-12-28T12:18:59.287Z,-0.92
2022-12-28T12:21:36.102Z,-0.92
2022-12-28T12:24:17.999Z,-0.92
2022-12-28T12:26:52.725Z,-0.93
2022-12-28T12:29:28.765Z,-0.95
2022-12-28T12:32:08.814Z,-0.93
2022-12-28T12:34:44.405Z,-0.95
2022-12-28T12:37:38.755Z,-1.08
2022-12-28T12:40:36.498Z,-0.94
2022-12-28T12:46:36.232Z,-1.00
2022-12-28T12:54:47.067Z,-1.27
2022-12-28T12:57:28.098Z,-1.36
2022-12-28T13:00:07.092Z,-1.24
2022-12-28T13:02:58.312Z,-1.22
2022-12-28T13:05:30.623Z,-1.36
2022-12-28T13:08:02.196Z,-1.17
2022-12-28T13:10:36.694Z,-1.18
2022-12-28T13:13:07.388Z,-1.12
2022-12-28T13:15:45.929Z,-1.21
2022-12-28T13:21:22.260Z,-1.17
2022-12-28T13:23:52.743Z,-1.07
2022-12-28T13:26:33.808Z,-1.10
2022-12-28T13:29:05.204Z,-1.04
2022-12-28T13:31:36.841Z,-1.08
2022-12-28T13:34:15.690Z,-1.07
2022-12-28T13:36:50.554Z,-1.02
2022-12-28T13:39:21.524Z,-1.01
2022-12-28T13:42:00.634Z,-1.22
2022-12-28T13:44:37.267Z,-1.02
2022-12-28T13:47:11.553Z,-0.98
2022-12-28T13:49:47.211Z,-1.11
2022-12-28T13:52:22.683Z,-1.09
2022-12-28T13:54:56.257Z,-1.09
2022-12-28T13:57:46.728Z,-1.13
2022-12-28T14:00:19.894Z,-1.02
2022-12-28T14:02:51.266Z,-1.07
2022-12-28T14:05:24.724Z,-1.11
2022-12-28T14:07:56.727Z,-1.18
2022-12-28T14:10:25.894Z,-1.21
2022-12-28T14:12:58.943Z,-1.29
2022-12-28T14:15:28.366Z,-1.36
2022-12-28T14:17:58.152Z,-1.54
2022-12-28T14:20:27.457Z,-1.47
2022-12-28T14:22:56.829Z,-1.49
2022-12-28T14:25:26.376Z,-1.52
2022-12-28T14:28:05.883Z,-1.53
2022-12-28T14:30:41.432Z,-1.76
2022-12-28T14:33:22.388Z,-1.64
2022-12-28T14:35:56.460Z,-1.71
2022-12-28T14:41:20.632Z,-1.63
2022-12-28T14:43:57.421Z,-1.70
2022-12-28T14:46:35.621Z,-1.75
2022-12-28T14:49:36.261Z,-1.61
2022-12-28T14:52:37.074Z,-1.59
2022-12-28T14:55:21.888Z,-1.69
2022-12-28T14:57:59.858Z,-1.67
2022-12-28T15:00:32.744Z,-1.61
2022-12-28T15:03:16.649Z,-1.64
2022-12-28T15:05:50.943Z,-1.76
2022-12-28T15:08:22.458Z,-1.81
2022-12-28T15:10:54.146Z,-1.68
2022-12-28T15:13:24.447Z,-1.67
2022-12-28T15:16:03.829Z,-1.91
2022-12-28T15:18:33.876Z,-1.71
2022-12-28T15:21:06.682Z,-1.75
2022-12-28T15:23:36.753Z,-1.74
2022-12-28T15:26:13.842Z,-1.72
2022-12-28T15:28:43.437Z,-1.89
2022-12-28T15:31:17.519Z,-1.70
2022-12-28T15:33:47.622Z,-1.93
2022-12-28T15:36:19.498Z,-1.77
2022-12-28T15:38:49.575Z,-1.73
2022-12-28T15:41:38.241Z,-1.84
2022-12-28T15:44:07.896Z,-1.76
2022-12-28T15:46:39.127Z,-1.88
2022-12-28T15:49:09.402Z,-1.64
2022-12-28T15:51:38.506Z,-1.63
2022-12-28T15:54:08.292Z,-1.63
2022-12-28T15:56:40.125Z,-1.63
2022-12-28T15:59:13.601Z,-1.63
2022-12-28T16:01:47.010Z,-1.80
2022-12-28T16:04:21.641Z,-1.67
2022-12-28T16:06:52.091Z,-1.64
2022-12-28T16:09:21.466Z,-1.63
2022-12-28T16:11:55.114Z,-1.63
2022-12-28T16:14:24.797Z,-1.62
2022-12-28T16:16:55.947Z,-1.59
2022-12-28T16:19:25.709Z,-1.61
2022-12-28T16:22:00.414Z,-1.79
2022-12-28T16:24:30.475Z,-1.64
2022-12-28T16:27:12.118Z,-1.83
2022-12-28T16:29:41.589Z,-1.83
2022-12-28T16:32:12.648Z,-1.66
2022-12-28T16:34:41.859Z,-1.70
2022-12-28T16:37:11.370Z,-1.68
2022-12-28T16:39:40.614Z,-1.69
2022-12-28T16:42:14.803Z,-1.66
2022-12-28T16:44:44.099Z,-1.67
2022-12-28T16:47:15.143Z,-1.66
2022-12-28T16:49:46.643Z,-1.64
2022-12-28T16:52:20.769Z,-1.63
2022-12-28T16:54:50.532Z,-1.68
2022-12-28T16:57:19.751Z,-1.62
2022-12-28T16:59:48.992Z,-1.76
2022-12-28T17:02:20.226Z,-1.70
2022-12-28T17:04:56.060Z,-2.23
2022-12-28T17:07:30.402Z,-1.71
2022-12-28T17:09:59.703Z,-1.65
2022-12-28T17:12:39.078Z,-1.65
2022-12-28T17:15:10.067Z,-1.64
2022-12-28T17:17:51.478Z,-1.73
2022-12-28T17:20:21.811Z,-1.71
2022-12-28T17:22:56.294Z,-1.80
2022-12-28T17:25:25.538Z,-1.66
2022-12-28T17:27:55.389Z,-1.61
2022-12-28T17:30:24.826Z,-1.62
2022-12-28T17:33:01.569Z,-1.73
2022-12-28T17:35:30.998Z,-1.56
2022-12-28T17:38:01.561Z,-1.65
2022-12-28T17:40:30.805Z,-1.58
2022-12-28T17:43:00.001Z,-1.55
2022-12-28T17:45:29.465Z,-1.59
2022-12-28T17:48:00.541Z,-1.68
2022-12-28T17:50:35.476Z,-1.56
2022-12-28T17:53:04.739Z,-1.63
2022-12-28T17:55:36.499Z,-1.56
2022-12-28T17:58:05.839Z,-1.58
2022-12-28T18:00:35.040Z,-1.56
2022-12-28T18:03:06.232Z,-1.59
2022-12-28T18:05:36.312Z,-1.79
2022-12-28T18:08:05.770Z,-1.64
2022-12-28T18:10:35.046Z,-1.60
2022-12-28T18:13:04.425Z,-1.63
2022-12-28T18:15:35.364Z,-1.63
2022-12-28T18:18:11.975Z,-1.64
2022-12-28T18:20:46.747Z,-1.58
2022-12-28T18:23:16.238Z,-1.58
2022-12-28T18:25:45.415Z,-1.58
2022-12-28T18:28:14.780Z,-1.66
2022-12-28T18:30:43.943Z,-1.79
2022-12-28T18:33:26.736Z,-1.69
2022-12-28T18:36:02.885Z,-1.73
2022-12-28T18:38:34.077Z,-1.65
2022-12-28T18:41:03.686Z,-1.56
2022-12-28T18:43:37.988Z,-1.81
2022-12-28T18:46:11.424Z,-1.54
2022-12-28T18:48:43.911Z,-1.54
2022-12-28T18:51:19.592Z,-1.54
2022-12-28T18:53:53.877Z,-1.55
2022-12-28T18:56:23.714Z,-1.56
2022-12-28T18:58:54.186Z,-1.64
2022-12-28T19:02:05.184Z,-1.51
2022-12-28T19:04:26.836Z,-1.51
2022-12-28T19:06:56.330Z,-1.51
2022-12-28T19:09:25.497Z,-1.61
2022-12-28T19:12:00.184Z,-1.55
2022-12-28T19:14:34.487Z,-1.56
2022-12-28T19:19:40.688Z,-1.61
2022-12-28T19:22:09.993Z,-1.60
2022-12-28T19:24:39.255Z,-1.78
2022-12-28T19:27:08.724Z,-1.63
2022-12-28T19:29:37.882Z,-1.59
2022-12-28T19:32:08.057Z,-1.68
2022-12-28T19:34:37.296Z,-1.53
2022-12-28T19:37:08.392Z,-1.51
2022-12-28T19:39:37.742Z,-1.49
2022-12-28T19:42:07.006Z,-1.52
2022-12-28T19:44:36.222Z,-1.52
2022-12-28T19:47:05.369Z,-1.51
2022-12-28T19:49:34.685Z,-1.56
2022-12-28T19:52:04.251Z,-1.45
2022-12-28T19:54:41.394Z,-1.54
2022-12-28T19:57:10.636Z,-1.42
2022-12-28T19:59:40.236Z,-1.35
2022-12-28T20:02:09.720Z,-1.36
2022-12-28T20:04:39.009Z,-1.28
2022-12-28T20:07:08.165Z,-1.23
2022-12-28T20:09:40.190Z,-1.29
2022-12-28T20:12:09.795Z,-1.23
2022-12-28T20:14:38.900Z,-1.15
2022-12-28T20:17:08.035Z,-1.09
2022-12-28T20:19:42.019Z,-1.17
2022-12-28T20:22:11.321Z,-0.98
2022-12-28T20:24:43.188Z,-1.12
2022-12-28T20:27:18.787Z,-0.95
2022-12-28T20:29:47.878Z,-1.08
2022-12-28T20:32:16.992Z,-0.96
2022-12-28T20:34:46.040Z,-1.00
2022-12-28T20:37:15.284Z,-1.02
2022-12-28T20:39:46.482Z,-1.05
2022-12-28T20:42:29.185Z,-1.04
2022-12-28T20:44:59.383Z,-1.09
2022-12-28T20:47:28.457Z,-1.02
2022-12-28T20:49:57.653Z,-1.06
2022-12-28T20:52:31.909Z,-1.10
2022-12-28T20:55:03.082Z,-1.34
2022-12-28T20:57:32.646Z,-1.11
2022-12-28T21:00:01.747Z,-1.09
2022-12-28T21:02:33.080Z,-1.36
2022-12-28T21:05:02.618Z,-1.11
2022-12-28T21:07:32.930Z,-1.31
2022-12-28T21:10:04.166Z,-1.09
2022-12-28T21:12:33.501Z,-1.24
2022-12-28T21:15:02.675Z,-1.11
2022-12-28T21:17:37.298Z,-1.10
2022-12-28T21:20:17.763Z,-1.07
2022-12-28T21:22:47.070Z,-1.06
2022-12-28T21:25:18.637Z,-1.04
2022-12-28T21:27:48.021Z,-1.05
2022-12-28T21:30:17.351Z,-1.06
2022-12-28T21:32:50.943Z,-1.00
2022-12-28T21:35:20.203Z,-0.99
2022-12-28T21:37:49.351Z,-0.99
2022-12-28T21:40:20.565Z,-0.97
2022-12-28T21:42:50.393Z,-0.98
2022-12-28T21:45:19.741Z,-1.00
2022-12-28T21:47:49.215Z,-0.98
2022-12-28T21:50:18.359Z,-1.38
2022-12-28T21:52:47.529Z,-0.98
2022-12-28T21:55:30.007Z,-1.17
2022-12-28T21:58:01.264Z,-0.96
2022-12-28T22:01:00.394Z,-1.02
2022-12-28T22:03:42.653Z,-0.93
2022-12-28T22:06:11.601Z,-0.90
2022-12-28T22:08:53.653Z,-0.93
2022-12-28T22:11:35.947Z,-1.11
2022-12-28T22:14:07.704Z,-1.15
2022-12-28T22:16:42.135Z,-0.93
2022-12-28T22:19:11.692Z,-0.89
2022-12-28T22:21:40.991Z,-0.86
2022-12-28T22:24:10.131Z,-0.83
2022-12-28T22:26:39.465Z,-0.81
2022-12-28T22:29:10.530Z,-0.79
2022-12-28T22:31:40.377Z,-0.80
2022-12-28T22:34:09.796Z,-0.90
2022-12-28T22:36:44.129Z,-0.78
2022-12-28T22:39:13.314Z,-0.86
2022-12-28T22:41:42.439Z,-0.91
2022-12-28T22:44:18.663Z,-0.75
2022-12-28T22:46:47.703Z,-0.76
2022-12-28T22:49:16.820Z,-0.73
2022-12-28T22:51:46.085Z,-0.69
2022-12-28T22:54:15.334Z,-0.67
2022-12-28T22:56:54.591Z,-0.76
2022-12-28T22:59:25.853Z,-0.84
2022-12-28T23:01:55.614Z,-0.69
2022-12-28T23:04:24.695Z,-0.64
2022-12-28T23:06:56.329Z,-0.74
2022-12-28T23:09:39.421Z,-0.67
2022-12-28T23:12:09.017Z,-0.71
2022-12-28T23:14:58.074Z,-0.86
2022-12-28T23:17:27.891Z,-0.89
2022-12-28T23:20:09.882Z,-0.74
2022-12-28T23:22:51.827Z,-0.74
2022-12-28T23:25:41.170Z,-0.89
2022-12-28T23:28:14.153Z,-0.79
2022-12-28T23:30:47.700Z,-0.86
2022-12-28T23:33:17.414Z,-0.80
2022-12-28T23:35:46.631Z,-0.81
2022-12-28T23:38:15.880Z,-0.80
2022-12-28T23:41:10.485Z,-0.98
2022-12-28T23:43:39.752Z,-1.06
2022-12-28T23:46:10.916Z,-0.76
2022-12-28T23:48:40.327Z,-0.73
2022-12-28T23:51:09.728Z,-0.71
2022-12-28T23:53:44.436Z,-0.66
2022-12-28T23:56:13.631Z,-0.67
2022-12-28T23:58:50.807Z,-0.70
